createdAt,value
2022-11-26T00:01:21.425Z,14.90
2022-11-26T00:03:49.497Z,17.38
2022-11-26T00:06:27.022Z,14.02
2022-11-26T00:08:54.109Z,17.45
2022-11-26T00:11:21.128Z,16.20
2022-11-26T00:13:48.135Z,10.50
2022-11-26T00:16:16.134Z,18.13
2022-11-26T00:18:43.726Z,17.40
2022-11-26T00:21:25.985Z,16.67
2022-11-26T00:23:54.596Z,16.92
2022-11-26T00:26:24.284Z,17.33
2022-11-26T00:29:02.011Z,26.67
2022-11-26T00:31:29.351Z,16.42
2022-11-26T00:33:56.626Z,18.35
2022-11-26T00:36:25.937Z,16.52
2022-11-26T00:39:06.999Z,17.67
2022-11-26T00:41:38.568Z,22.63
2022-11-26T00:44:20.354Z,17.38
2022-11-26T00:46:48.024Z,16.23
2022-11-26T00:49:15.884Z,26.95
2022-11-26T00:51:43.463Z,20.10
2022-11-26T00:54:13.586Z,19.63
2022-11-26T00:56:41.117Z,19.40
2022-11-26T00:59:13.589Z,23.30
2022-11-26T01:01:40.739Z,24.80
2022-11-26T01:04:07.895Z,23.95
2022-11-26T01:06:38.981Z,19.13
2022-11-26T01:09:07.175Z,18.38
2022-11-26T01:11:34.214Z,28.08
2022-11-26T01:14:01.377Z,22.00
2022-11-26T01:16:31.421Z,25.13
2022-11-26T01:19:00.023Z,22.52
2022-11-26T01:21:29.746Z,40.38
2022-11-26T01:23:56.925Z,17.83
2022-11-26T01:26:27.399Z,28.10
2022-11-26T01:28:55.488Z,21.15
2022-11-26T01:31:27.431Z,26.70
2022-11-26T01:33:54.646Z,24.60
2022-11-26T01:36:33.389Z,22.92
2022-11-26T01:39:01.807Z,24.00
2022-11-26T01:42:06.202Z,23.23
2022-11-26T01:44:35.893Z,26.17
2022-11-26T01:47:25.121Z,25.00
2022-11-26T01:50:29.267Z,21.73
2022-11-26T01:52:59.996Z,32.20
2022-11-26T01:55:39.901Z,24.58
2022-11-26T01:58:12.738Z,23.20
2022-11-26T02:00:40.214Z,26.15
2022-11-26T02:03:08.525Z,26.27
2022-11-26T02:05:42.433Z,19.83
2022-11-26T02:08:12.048Z,24.33
2022-11-26T02:10:39.126Z,21.77
2022-11-26T02:13:06.457Z,29.00
2022-11-26T02:16:03.865Z,32.40
2022-11-26T02:18:38.333Z,28.58
2022-11-26T02:21:20.889Z,32.13
2022-11-26T02:24:07.988Z,44.22
2022-11-26T02:26:58.501Z,36.80
2022-11-26T02:29:47.060Z,30.63
2022-11-26T02:32:21.137Z,28.77
2022-11-26T02:34:57.413Z,34.72
2022-11-26T02:37:50.177Z,28.70
2022-11-26T02:40:17.570Z,26.90
2022-11-26T02:42:44.551Z,26.02
2022-11-26T02:45:14.312Z,25.63
2022-11-26T02:47:44.731Z,34.05
2022-11-26T02:50:18.924Z,44.30
2022-11-26T02:52:49.170Z,25.40
2022-11-26T02:55:20.342Z,26.40
2022-11-26T02:57:50.713Z,21.25
2022-11-26T03:00:18.195Z,24.50
2022-11-26T03:02:49.888Z,39.80
2022-11-26T03:05:18.249Z,55.57
2022-11-26T03:07:49.102Z,27.67
2022-11-26T03:10:16.286Z,30.27
2022-11-26T03:12:43.306Z,26.20
2022-11-26T03:15:11.171Z,27.48
2022-11-26T03:17:38.231Z,24.92
2022-11-26T03:20:06.053Z,27.38
2022-11-26T03:22:33.155Z,21.02
2022-11-26T03:25:00.161Z,27.55
2022-11-26T03:27:27.210Z,31.70
2022-11-26T03:29:54.196Z,37.67
2022-11-26T03:32:21.207Z,27.65
2022-11-26T03:34:48.249Z,24.60
2022-11-26T03:37:15.580Z,26.83
2022-11-26T03:39:42.619Z,22.45
2022-11-26T03:42:09.952Z,27.65
2022-11-26T03:44:37.323Z,20.70
2022-11-26T03:47:04.552Z,32.45
2022-11-26T03:49:31.690Z,19.80
2022-11-26T03:51:58.840Z,23.25
2022-11-26T03:54:26.052Z,23.33
2022-11-26T03:56:53.027Z,19.20
2022-11-26T03:59:20.053Z,25.17
2022-11-26T04:01:47.224Z,28.58
2022-11-26T04:04:14.350Z,25.52
2022-11-26T04:06:41.428Z,28.13
2022-11-26T04:09:08.495Z,30.90
2022-11-26T04:11:35.696Z,34.38
2022-11-26T04:14:02.700Z,19.52
2022-11-26T04:16:29.782Z,26.45
2022-11-26T04:18:56.793Z,25.95
2022-11-26T04:21:23.799Z,31.65
2022-11-26T04:23:50.794Z,28.77
2022-11-26T04:26:17.902Z,36.65
2022-11-26T04:28:46.122Z,44.00
2022-11-26T04:31:13.163Z,30.88
2022-11-26T04:33:40.175Z,38.08
2022-11-26T04:36:07.448Z,32.05
2022-11-26T04:38:34.624Z,36.42
2022-11-26T04:41:01.639Z,42.40
2022-11-26T04:43:28.613Z,32.92
2022-11-26T04:45:55.831Z,54.85
2022-11-26T04:48:22.897Z,41.25
2022-11-26T04:50:50.226Z,33.20
2022-11-26T04:53:21.678Z,20.10
2022-11-26T04:55:49.924Z,21.77
2022-11-26T04:58:18.334Z,21.98
2022-11-26T05:00:50.218Z,25.63
2022-11-26T05:03:18.440Z,24.65
2022-11-26T05:05:46.588Z,28.77
2022-11-26T05:08:13.993Z,26.67
2022-11-26T05:10:41.077Z,21.50
2022-11-26T05:13:08.166Z,25.88
2022-11-26T05:15:35.126Z,23.48
2022-11-26T05:18:02.211Z,24.35
2022-11-26T05:20:29.226Z,24.02
2022-11-26T05:22:56.236Z,32.08
2022-11-26T05:25:23.602Z,23.38
2022-11-26T05:27:50.607Z,17.35
2022-11-26T05:30:17.832Z,33.08
2022-11-26T05:32:44.869Z,18.33
2022-11-26T05:35:11.873Z,27.80
2022-11-26T05:37:39.116Z,24.55
2022-11-26T05:40:07.090Z,24.55
2022-11-26T05:42:34.260Z,21.67
2022-11-26T05:45:01.647Z,20.55
2022-11-26T05:47:28.611Z,18.70
2022-11-26T05:49:55.709Z,22.52
2022-11-26T05:52:23.646Z,17.70
2022-11-26T05:54:50.641Z,20.73
2022-11-26T05:57:18.175Z,18.58
2022-11-26T05:59:46.045Z,23.20
2022-11-26T06:02:13.316Z,19.48
2022-11-26T06:04:40.807Z,24.65
2022-11-26T06:07:08.168Z,23.45
2022-11-26T06:09:36.070Z,18.50
2022-11-26T06:12:03.520Z,21.92
2022-11-26T06:14:30.502Z,23.55
2022-11-26T06:16:57.566Z,17.92
2022-11-26T06:19:24.779Z,18.48
2022-11-26T06:21:51.740Z,21.08
2022-11-26T06:24:19.031Z,20.40
2022-11-26T06:26:45.992Z,20.38
2022-11-26T06:29:13.175Z,22.50
2022-11-26T06:31:40.197Z,18.50
2022-11-26T06:34:07.321Z,29.52
2022-11-26T06:36:34.532Z,29.55
2022-11-26T06:39:01.616Z,27.67
2022-11-26T06:41:28.581Z,24.98
2022-11-26T06:43:55.573Z,30.90
2022-11-26T06:46:22.622Z,27.63
2022-11-26T06:48:49.713Z,38.08
2022-11-26T06:51:17.427Z,27.10
2022-11-26T06:53:44.440Z,21.92
2022-11-26T06:56:18.465Z,19.08
2022-11-26T06:58:48.336Z,23.27
2022-11-26T07:01:18.475Z,28.42
2022-11-26T07:03:46.614Z,30.10
2022-11-26T07:06:22.842Z,26.95
2022-11-26T07:08:51.519Z,26.38
2022-11-26T07:11:19.501Z,26.15
2022-11-26T07:13:46.596Z,26.77
2022-11-26T07:16:14.750Z,22.77
2022-11-26T07:18:41.832Z,22.88
2022-11-26T07:21:11.098Z,33.50
2022-11-26T07:23:39.005Z,26.63
2022-11-26T07:26:07.879Z,35.85
2022-11-26T07:28:35.792Z,31.15
2022-11-26T07:31:22.403Z,24.73
2022-11-26T07:33:50.674Z,29.98
2022-11-26T07:36:20.774Z,29.15
2022-11-26T07:38:48.565Z,26.90
2022-11-26T07:41:18.537Z,24.00
2022-11-26T07:43:46.134Z,29.42
2022-11-26T07:46:17.783Z,28.88
2022-11-26T07:48:45.015Z,33.20
2022-11-26T07:51:39.665Z,37.63
2022-11-26T07:54:08.223Z,35.78
2022-11-26T07:56:36.191Z,21.90
2022-11-26T07:59:03.499Z,32.08
2022-11-26T08:01:30.991Z,25.25
2022-11-26T08:04:00.152Z,31.17
2022-11-26T08:06:29.546Z,35.47
2022-11-26T08:08:58.924Z,27.23
2022-11-26T08:11:28.259Z,29.45
2022-11-26T08:14:00.720Z,35.55
2022-11-26T08:16:29.043Z,35.10
2022-11-26T08:18:58.914Z,25.10
2022-11-26T08:21:26.407Z,25.25
2022-11-26T08:23:53.735Z,37.47
2022-11-26T08:26:27.489Z,27.23
2022-11-26T08:28:59.320Z,39.58
2022-11-26T08:31:27.780Z,27.45
2022-11-26T08:33:59.045Z,32.88
2022-11-26T08:36:26.944Z,32.75
2022-11-26T08:38:54.405Z,35.30
2022-11-26T08:41:21.720Z,32.80
2022-11-26T08:44:06.138Z,27.95
2022-11-26T08:46:33.595Z,29.98
2022-11-26T08:49:00.992Z,32.00
2022-11-26T08:51:28.087Z,32.40
2022-11-26T08:53:55.265Z,32.92
2022-11-26T08:56:22.339Z,26.75
2022-11-26T08:58:51.278Z,32.63
2022-11-26T09:01:21.320Z,36.10
2022-11-26T09:03:50.059Z,22.30
2022-11-26T09:06:18.134Z,34.80
2022-11-26T09:09:05.139Z,34.83
2022-11-26T09:11:34.925Z,30.70
2022-11-26T09:14:02.851Z,24.13
2022-11-26T09:16:30.102Z,26.48
2022-11-26T09:19:00.111Z,23.15
2022-11-26T09:21:27.793Z,26.60
2022-11-26T09:23:55.313Z,25.08
2022-11-26T09:26:23.148Z,25.67
2022-11-26T09:28:50.696Z,32.63
2022-11-26T09:31:18.921Z,25.63
2022-11-26T09:33:46.151Z,20.55
2022-11-26T09:36:14.957Z,26.02
2022-11-26T09:38:42.381Z,24.15
2022-11-26T09:41:31.348Z,20.77
2022-11-26T09:44:14.567Z,27.73
2022-11-26T09:47:15.066Z,25.67
2022-11-26T09:50:06.650Z,15.45
2022-11-26T09:52:40.667Z,15.13
2022-11-26T09:55:21.896Z,13.48
2022-11-26T09:58:12.588Z,30.10
2022-11-26T10:00:51.696Z,19.92
2022-11-26T10:03:24.345Z,19.40
2022-11-26T10:08:26.781Z,16.85
2022-11-26T10:11:03.586Z,19.73
2022-11-26T10:13:44.941Z,26.02
2022-11-26T10:16:18.327Z,16.60
2022-11-26T10:19:12.996Z,24.10
2022-11-26T10:22:00.074Z,20.45
2022-11-26T10:24:39.384Z,31.17
2022-11-26T10:27:23.062Z,17.17
2022-11-26T10:29:56.383Z,19.83
2022-11-26T10:32:46.237Z,28.60
2022-11-26T10:35:19.158Z,26.45
2022-11-26T10:37:46.173Z,22.73
2022-11-26T10:40:29.529Z,23.35
2022-11-26T10:43:12.533Z,20.15
2022-11-26T10:45:48.906Z,16.65
2022-11-26T10:48:30.206Z,18.90
2022-11-26T10:51:15.231Z,14.98
2022-11-26T10:53:55.452Z,19.50
2022-11-26T10:56:35.122Z,17.83
2022-11-26T10:59:13.656Z,16.80
2022-11-26T11:01:41.856Z,13.60
2022-11-26T11:04:28.950Z,22.90
2022-11-26T11:06:56.820Z,14.48
2022-11-26T11:09:28.653Z,33.83
2022-11-26T11:12:10.941Z,21.55
2022-11-26T11:14:45.563Z,16.70
2022-11-26T11:17:32.261Z,21.77
2022-11-26T11:20:04.940Z,13.15
2022-11-26T11:25:00.159Z,20.45
2022-11-26T11:27:41.680Z,17.90
2022-11-26T11:30:25.340Z,21.40
2022-11-26T11:32:57.118Z,18.65
2022-11-26T11:35:26.973Z,13.33
2022-11-26T11:37:55.878Z,18.58
2022-11-26T11:40:27.438Z,13.63
2022-11-26T11:43:00.291Z,13.17
2022-11-26T11:48:26.439Z,24.45
2022-11-26T11:51:38.307Z,13.95
2022-11-26T11:54:21.671Z,11.65
2022-11-26T11:57:02.888Z,13.50
2022-11-26T11:59:58.356Z,10.77
2022-11-26T12:02:41.794Z,9.77
2022-11-26T12:05:36.085Z,6.93
2022-11-26T12:08:17.928Z,10.85
2022-11-26T12:11:00.108Z,8.88
2022-11-26T12:13:30.188Z,19.25
2022-11-26T12:16:05.972Z,10.23
2022-11-26T12:18:53.530Z,14.75
2022-11-26T12:21:49.267Z,9.70
2022-11-26T12:24:41.459Z,10.48
2022-11-26T12:27:18.476Z,13.45
2022-11-26T12:29:56.050Z,9.40
2022-11-26T12:32:35.971Z,9.75
2022-11-26T12:35:29.761Z,9.38
2022-11-26T12:38:01.830Z,8.93
2022-11-26T12:40:32.010Z,12.35
2022-11-26T12:43:13.992Z,8.63
2022-11-26T12:45:56.441Z,8.90
2022-11-26T12:48:46.746Z,6.68
2022-11-26T12:51:38.772Z,9.70
2022-11-26T12:54:26.713Z,12.25
2022-11-26T12:57:09.817Z,9.45
2022-11-26T12:59:52.122Z,13.05
2022-11-26T13:02:29.708Z,11.82
2022-11-26T13:04:57.300Z,15.93
2022-11-26T13:07:37.126Z,15.45
2022-11-26T13:10:07.026Z,11.02
2022-11-26T13:13:08.778Z,19.27
2022-11-26T13:15:54.273Z,11.77
2022-11-26T13:18:32.852Z,12.98
2022-11-26T13:21:21.753Z,12.73
2022-11-26T13:23:49.437Z,11.73
2022-11-26T13:26:41.044Z,14.70
2022-11-26T13:29:53.173Z,11.05
2022-11-26T13:32:38.779Z,11.43
2022-11-26T13:35:20.964Z,14.20
2022-11-26T13:38:06.689Z,9.93
2022-11-26T13:40:57.399Z,12.73
2022-11-26T13:43:44.830Z,17.87
2022-11-26T13:46:22.547Z,21.52
2022-11-26T13:49:01.658Z,17.25
2022-11-26T13:52:08.492Z,14.68
2022-11-26T13:54:41.047Z,8.73
2022-11-26T13:57:08.254Z,23.08
2022-11-26T13:59:36.692Z,11.75
2022-11-26T14:02:42.489Z,14.43
2022-11-26T14:05:13.369Z,12.32
2022-11-26T14:07:40.818Z,14.32
2022-11-26T14:10:36.936Z,18.05
2022-11-26T14:13:11.558Z,11.30
2022-11-26T14:15:41.225Z,13.35
2022-11-26T14:18:13.449Z,9.32
2022-11-26T14:21:09.684Z,17.33
2022-11-26T14:23:57.422Z,11.88
2022-11-26T14:26:29.142Z,12.32
2022-11-26T14:29:17.548Z,21.93
2022-11-26T14:31:54.095Z,24.50
2022-11-26T14:34:42.375Z,9.95
2022-11-26T14:37:14.502Z,13.00
2022-11-26T14:39:41.567Z,16.80
2022-11-26T14:42:16.319Z,16.60
2022-11-26T14:44:44.270Z,12.88
2022-11-26T14:47:17.630Z,20.05
2022-11-26T14:49:56.364Z,19.05
2022-11-26T14:52:26.538Z,11.27
2022-11-26T14:54:58.105Z,14.90
2022-11-26T14:57:50.347Z,21.60
2022-11-26T15:00:17.270Z,19.52
2022-11-26T15:02:48.461Z,18.30
2022-11-26T15:05:19.108Z,17.80
2022-11-26T15:07:47.618Z,23.02
2022-11-26T15:10:14.637Z,23.88
2022-11-26T15:12:43.907Z,13.90
2022-11-26T15:15:21.831Z,10.80
2022-11-26T15:17:56.124Z,22.60
2022-11-26T15:20:23.959Z,11.52
2022-11-26T15:22:53.621Z,11.40
2022-11-26T15:25:25.825Z,20.15
2022-11-26T15:28:16.130Z,16.25
2022-11-26T15:30:59.996Z,21.38
2022-11-26T15:33:29.510Z,14.60
2022-11-26T15:35:57.229Z,15.45
2022-11-26T15:38:27.122Z,15.02
2022-11-26T15:40:58.232Z,21.02
2022-11-26T15:43:34.317Z,16.98
2022-11-26T15:46:10.876Z,10.95
2022-11-26T15:48:52.030Z,18.85
2022-11-26T15:51:30.718Z,20.48
2022-11-26T15:54:02.435Z,14.15
2022-11-26T15:56:35.912Z,13.88
2022-11-26T15:59:13.719Z,15.32
2022-11-26T16:01:44.286Z,21.13
2022-11-26T16:04:33.184Z,17.02
2022-11-26T16:07:21.110Z,20.80
2022-11-26T16:09:50.464Z,24.63
2022-11-26T16:12:35.396Z,18.13
2022-11-26T16:15:26.328Z,25.25
2022-11-26T16:17:53.739Z,19.85
2022-11-26T16:20:26.740Z,17.52
2022-11-26T16:22:57.765Z,21.75
2022-11-26T16:25:27.740Z,30.48
2022-11-26T16:28:14.776Z,17.52
2022-11-26T16:30:43.910Z,19.15
2022-11-26T16:33:11.104Z,16.92
2022-11-26T16:35:46.737Z,25.50
2022-11-26T16:38:26.005Z,23.40
2022-11-26T16:40:53.874Z,18.30
2022-11-26T16:43:21.033Z,19.08
2022-11-26T16:45:50.438Z,19.38
2022-11-26T16:48:27.578Z,19.00
2022-11-26T16:50:55.730Z,21.05
2022-11-26T16:53:23.055Z,18.05
2022-11-26T16:55:52.084Z,21.95
2022-11-26T16:58:32.040Z,24.25
2022-11-26T17:00:59.422Z,23.98
2022-11-26T17:03:29.805Z,19.35
2022-11-26T17:05:59.984Z,24.65
2022-11-26T17:08:28.859Z,27.27
2022-11-26T17:10:56.397Z,23.23
2022-11-26T17:13:23.597Z,22.20
2022-11-26T17:15:51.653Z,19.70
2022-11-26T17:18:25.338Z,21.10
2022-11-26T17:20:53.609Z,19.60
2022-11-26T17:23:20.945Z,16.80
2022-11-26T17:25:52.229Z,25.60
2022-11-26T17:28:21.249Z,42.15
2022-11-26T17:30:48.392Z,30.33
2022-11-26T17:33:15.630Z,23.77
2022-11-26T17:35:42.788Z,30.73
2022-11-26T17:38:19.711Z,30.45
2022-11-26T17:40:47.793Z,31.20
2022-11-26T17:43:14.889Z,27.58
2022-11-26T17:45:42.021Z,19.98
2022-11-26T17:48:13.132Z,25.65
2022-11-26T17:50:41.311Z,21.42
2022-11-26T17:53:08.685Z,22.13
2022-11-26T17:55:35.832Z,17.23
2022-11-26T17:58:02.921Z,21.65
2022-11-26T18:00:30.142Z,25.80
2022-11-26T18:02:57.804Z,17.38
2022-11-26T18:05:25.126Z,28.33
2022-11-26T18:07:52.592Z,18.27
2022-11-26T18:10:22.183Z,17.42
2022-11-26T18:12:53.373Z,21.27
2022-11-26T18:15:23.421Z,21.38
2022-11-26T18:17:54.080Z,20.77
2022-11-26T18:20:23.859Z,19.95
2022-11-26T18:22:56.310Z,19.10
2022-11-26T18:25:23.371Z,14.15
2022-11-26T18:27:50.475Z,25.98
2022-11-26T18:30:18.121Z,31.25
2022-11-26T18:32:45.181Z,16.52
2022-11-26T18:35:13.095Z,26.05
2022-11-26T18:37:40.490Z,25.90
2022-11-26T18:40:10.337Z,18.58
2022-11-26T18:42:38.375Z,13.60
2022-11-26T18:45:07.610Z,17.83
2022-11-26T18:47:34.871Z,24.00
2022-11-26T18:50:01.864Z,19.73
2022-11-26T18:52:29.348Z,14.80
2022-11-26T18:54:56.399Z,35.42
2022-11-26T18:57:23.439Z,27.85
2022-11-26T18:59:51.390Z,20.23
2022-11-26T19:02:18.584Z,23.38
2022-11-26T19:04:45.682Z,22.77
2022-11-26T19:07:13.935Z,22.48
2022-11-26T19:09:41.523Z,15.45
2022-11-26T19:12:08.966Z,16.27
2022-11-26T19:14:36.537Z,19.80
2022-11-26T19:17:03.857Z,18.23
2022-11-26T19:19:32.120Z,16.33
2022-11-26T19:22:01.358Z,22.15
2022-11-26T19:24:29.866Z,20.65
2022-11-26T19:26:57.210Z,22.42
2022-11-26T19:29:24.349Z,16.67
2022-11-26T19:31:51.540Z,14.75
2022-11-26T19:34:18.649Z,21.20
2022-11-26T19:36:48.359Z,24.50
2022-11-26T19:39:16.552Z,22.23
2022-11-26T19:41:43.713Z,24.85
2022-11-26T19:44:11.824Z,24.73
2022-11-26T19:46:41.094Z,24.02
2022-11-26T19:49:11.836Z,18.40
2022-11-26T19:51:40.022Z,21.67
2022-11-26T19:54:07.543Z,23.13
2022-11-26T19:56:35.110Z,22.23
2022-11-26T19:59:02.536Z,20.50
2022-11-26T20:01:32.085Z,21.13
2022-11-26T20:04:01.407Z,16.88
2022-11-26T20:06:29.952Z,28.70
2022-11-26T20:08:58.926Z,20.65
2022-11-26T20:11:27.402Z,19.75
2022-11-26T20:13:55.332Z,22.55
2022-11-26T20:16:25.004Z,21.52
2022-11-26T20:18:52.145Z,18.05
2022-11-26T20:21:21.832Z,17.42
2022-11-26T20:23:50.384Z,18.02
2022-11-26T20:26:19.160Z,15.27
2022-11-26T20:28:46.385Z,24.83
2022-11-26T20:31:16.347Z,21.50
2022-11-26T20:33:46.693Z,13.60
2022-11-26T20:36:15.352Z,23.02
2022-11-26T20:38:42.361Z,28.02
2022-11-26T20:41:11.901Z,23.42
2022-11-26T20:43:39.305Z,25.88
2022-11-26T20:46:07.726Z,15.15
2022-11-26T20:48:36.120Z,15.52
2022-11-26T20:51:12.192Z,18.23
2022-11-26T20:53:40.605Z,22.25
2022-11-26T20:56:08.737Z,17.25
2022-11-26T20:58:36.141Z,21.98
2022-11-26T21:01:03.592Z,18.15
2022-11-26T21:03:31.119Z,17.60
2022-11-26T21:06:02.647Z,19.63
2022-11-26T21:08:29.966Z,29.58
2022-11-26T21:10:57.074Z,22.52
2022-11-26T21:13:24.089Z,26.67
2022-11-26T21:15:51.188Z,20.35
2022-11-26T21:18:18.251Z,21.05
2022-11-26T21:20:45.387Z,14.80
2022-11-26T21:23:13.331Z,21.83
2022-11-26T21:25:42.460Z,20.88
2022-11-26T21:28:10.603Z,26.67
2022-11-26T21:30:38.655Z,20.83
2022-11-26T21:33:09.282Z,24.60
2022-11-26T21:35:37.561Z,17.85
2022-11-26T21:38:05.797Z,22.85
2022-11-26T21:40:33.196Z,18.38
2022-11-26T21:43:00.170Z,17.05
2022-11-26T21:45:30.126Z,18.92
2022-11-26T21:47:57.127Z,14.98
2022-11-26T21:50:24.113Z,28.90
2022-11-26T21:52:51.094Z,19.40
2022-11-26T21:55:18.081Z,21.92
2022-11-26T21:57:45.600Z,23.38
2022-11-26T22:00:13.191Z,22.50
2022-11-26T22:02:40.199Z,17.35
2022-11-26T22:05:07.558Z,19.75
2022-11-26T22:07:34.755Z,13.25
2022-11-26T22:10:01.897Z,22.45
2022-11-26T22:12:29.256Z,30.13
2022-11-26T22:14:56.277Z,15.13
2022-11-26T22:17:23.307Z,19.00
2022-11-26T22:19:50.325Z,26.05
2022-11-26T22:22:17.324Z,18.45
2022-11-26T22:24:44.363Z,9.88
2022-11-26T22:27:11.368Z,11.95
2022-11-26T22:29:38.606Z,15.95
2022-11-26T22:32:05.948Z,15.68
2022-11-26T22:34:33.051Z,12.65
2022-11-26T22:37:00.094Z,8.30
2022-11-26T22:39:27.080Z,19.02
2022-11-26T22:41:54.105Z,13.02
2022-11-26T22:44:21.179Z,16.83
2022-11-26T22:46:48.195Z,11.60
2022-11-26T22:49:18.685Z,16.30
2022-11-26T22:51:47.281Z,20.73
2022-11-26T22:54:15.591Z,12.98
2022-11-26T22:56:42.637Z,20.55
2022-11-26T22:59:12.568Z,23.40
2022-11-26T23:01:39.923Z,17.63
2022-11-26T23:04:09.015Z,10.93
2022-11-26T23:06:36.780Z,16.05
2022-11-26T23:09:06.282Z,22.67
2022-11-26T23:11:37.515Z,12.32
2022-11-26T23:14:07.247Z,13.18
2022-11-26T23:16:36.082Z,17.20
2022-11-26T23:19:03.943Z,19.10
2022-11-26T23:21:38.231Z,13.77
2022-11-26T23:24:06.441Z,11.57
2022-11-26T23:26:35.637Z,16.52
2022-11-26T23:29:04.023Z,14.68
2022-11-26T23:31:34.376Z,18.50
2022-11-26T23:34:02.283Z,16.20
2022-11-26T23:36:30.132Z,15.07
2022-11-26T23:38:59.497Z,15.90
2022-11-26T23:41:26.765Z,18.70
2022-11-26T23:43:54.251Z,13.40
2022-11-26T23:46:24.099Z,12.93
2022-11-26T23:48:51.584Z,16.90
2022-11-26T23:51:21.955Z,13.20
2022-11-26T23:53:50.431Z,12.70
2022-11-26T23:56:28.899Z,20.98
2022-11-26T23:58:58.072Z,15.88
